Time;durP1;ratioP1;P1;durP2;ratioP2;P2;SDS_P1;SDS_P2;PMS_P1;PMS_P2;Temp;Humidity;BMP_temperature;BMP_pressure;BME280_temperature;BME280_humidity;BME280_pressure;Samples;Min_cycle;Max_cycle;Signal;HPM_P1;HPM_P2
2021/01/17 00:03:56;;;;;;;16.38;14.88;;;;;;;-3.19;64.25;100333.94;10189197;29;20044;-68
2021/01/17 00:08:57;;;;;;;16.15;14.50;;;;;;;-3.37;65.06;100330.00;10182187;29;20132;-70
2021/01/17 00:13:58;;;;;;;16.02;14.50;;;;;;;-3.39;64.50;100325.66;10182988;29;20040;-69
2021/01/17 00:18:59;;;;;;;16.23;14.63;;;;;;;-2.83;62.61;100318.66;10182401;29;20095;-69
2021/01/17 00:24:01;;;;;;;18.90;13.93;;;;;;;-3.26;64.26;100321.75;10183797;29;20112;-69
2021/01/17 00:29:02;;;;;;;16.73;15.05;;;;;;;-3.47;65.38;100311.72;10180901;29;20526;-69
2021/01/17 00:34:03;;;;;;;19.13;16.17;;;;;;;-3.20;64.25;100311.63;10181219;29;20075;-69
2021/01/17 00:39:06;;;;;;;16.73;15.13;;;;;;;-3.27;64.53;100307.16;10186105;29;20059;-70
2021/01/17 00:44:07;;;;;;;16.25;14.77;;;;;;;-3.28;64.55;100292.53;10181984;29;20095;-69
2021/01/17 00:49:09;;;;;;;16.77;15.05;;;;;;;-3.25;64.36;100296.09;10181549;29;20048;-68
2021/01/17 00:54:10;;;;;;;16.85;15.25;;;;;;;-3.24;64.09;100291.81;10180269;29;20383;-69
2021/01/17 00:59:12;;;;;;;16.58;14.95;;;;;;;-3.24;64.08;100284.97;10179017;29;20141;-70
2021/01/17 01:04:17;;;;;;;17.10;15.40;;;;;;;-3.30;64.20;100277.09;10178329;29;20048;-69
2021/01/17 01:09:18;;;;;;;27.25;15.82;;;;;;;-3.39;64.83;100282.84;10179838;29;20491;-69
2021/01/17 01:14:20;;;;;;;16.95;15.27;;;;;;;-3.53;65.85;100283.28;10178557;29;20059;-69
2021/01/17 01:19:21;;;;;;;15.98;14.48;;;;;;;-3.36;65.17;100275.22;10179303;29;20048;-70
2021/01/17 01:24:26;;;;;;;17.60;15.70;;;;;;;-3.38;64.98;100273.44;10178421;29;20044;-70
2021/01/17 01:29:27;;;;;;;17.48;15.75;;;;;;;-3.58;66.27;100262.59;10177845;29;20055;-71
2021/01/17 01:34:29;;;;;;;18.02;16.33;;;;;;;-3.42;66.20;100256.19;10177948;29;20065;-70
2021/01/17 01:39:30;;;;;;;17.17;15.48;;;;;;;-3.22;64.97;100257.63;10178624;29;20099;-69
2021/01/17 01:44:31;;;;;;;17.60;15.80;;;;;;;-3.21;64.56;100251.63;10179650;29;20451;-70
2021/01/17 01:49:33;;;;;;;17.42;15.82;;;;;;;-3.25;65.47;100247.22;10185699;29;20395;-69
2021/01/17 01:54:35;;;;;;;17.25;15.55;;;;;;;-3.20;65.28;100239.66;10185952;29;20083;-71
2021/01/17 01:59:40;;;;;;;17.20;15.45;;;;;;;-3.13;66.07;100242.44;10186489;29;20127;-71
2021/01/17 02:04:41;;;;;;;17.55;15.85;;;;;;;-3.19;65.90;100234.53;10185632;29;20076;-68
2021/01/17 02:09:44;;;;;;;18.75;16.73;;;;;;;-3.15;65.76;100233.78;10184686;29;20072;-69
2021/01/17 02:14:56;;;;;;;19.73;17.83;;;;;;;-3.05;65.54;100228.06;10186432;29;20530;-70
2021/01/17 02:20:17;;;;;;;18.05;16.38;;;;;;;-3.17;65.82;100224.31;10186002;29;20076;-69
2021/01/17 02:25:19;;;;;;;20.42;18.30;;;;;;;-3.05;65.71;100220.38;10185760;29;20075;-69
2021/01/17 02:30:32;;;;;;;19.20;17.42;;;;;;;-3.09;65.76;100210.81;10184888;29;20506;-69
2021/01/17 02:35:35;;;;;;;20.75;18.60;;;;;;;-3.47;67.53;100217.50;10182916;29;20510;-70
2021/01/17 02:41:16;;;;;;;23.75;18.70;;;;;;;-3.22;66.77;100213.03;10184634;29;20469;-69
2021/01/17 02:46:17;;;;;;;20.52;18.58;;;;;;;-3.18;67.04;100209.72;10184559;29;20048;-69
2021/01/17 02:51:19;;;;;;;20.33;18.20;;;;;;;-3.27;67.71;100212.91;10183267;29;20048;-68
2021/01/17 02:56:24;;;;;;;23.08;19.02;;;;;;;-3.20;67.01;100208.78;10182696;29;20060;-69
2021/01/17 03:01:35;;;;;;;21.70;18.80;;;;;;;-2.62;65.49;100199.97;10184336;29;20051;-69
2021/01/17 03:06:40;;;;;;;22.33;17.80;;;;;;;-2.92;65.77;100212.94;10184289;29;20494;-70
2021/01/17 03:11:42;;;;;;;21.65;19.42;;;;;;;-3.37;67.79;100213.47;10183024;29;20072;-69
2021/01/17 03:16:43;;;;;;;21.30;19.10;;;;;;;-3.25;67.71;100221.53;10183677;29;20047;-69
2021/01/17 03:21:45;;;;;;;20.30;18.02;;;;;;;-3.03;67.45;100227.25;10190422;29;20068;-69
2021/01/17 03:26:46;;;;;;;20.90;18.80;;;;;;;-2.98;66.56;100225.66;10188973;29;20052;-70
2021/01/17 03:31:48;;;;;;;21.50;19.10;;;;;;;-3.06;66.75;100222.88;10182458;29;20044;-68
2021/01/17 03:36:50;;;;;;;24.27;19.75;;;;;;;-2.96;66.87;100221.44;10183383;29;20059;-69
2021/01/17 03:41:51;;;;;;;23.00;20.50;;;;;;;-3.00;67.07;100225.63;10182716;29;20076;-69
2021/01/17 03:46:52;;;;;;;20.52;18.33;;;;;;;-2.75;65.93;100224.53;10182863;29;20048;-69
2021/01/17 03:51:53;;;;;;;25.90;18.67;;;;;;;-2.85;66.05;100217.41;10182707;29;20048;-69
2021/01/17 03:56:55;;;;;;;22.05;19.23;;;;;;;-2.97;66.33;100220.53;10182870;29;20044;-69
2021/01/17 04:01:56;;;;;;;29.75;19.15;;;;;;;-3.00;66.40;100222.19;10181367;29;20411;-69
2021/01/17 04:06:59;;;;;;;22.60;20.20;;;;;;;-2.76;66.00;100221.91;10179257;29;20056;-70
2021/01/17 04:12:01;;;;;;;21.50;18.90;;;;;;;-2.92;66.44;100212.94;10178749;29;20040;-69
2021/01/17 04:17:02;;;;;;;20.88;18.75;;;;;;;-2.96;66.82;100217.16;10178544;29;20126;-70
2021/01/17 04:22:03;;;;;;;26.40;21.45;;;;;;;-3.12;67.76;100222.72;10178360;29;20046;-69
2021/01/17 04:27:04;;;;;;;25.73;20.48;;;;;;;-2.85;66.35;100212.28;10178171;29;20079;-69
2021/01/17 04:32:05;;;;;;;23.05;19.23;;;;;;;-2.95;66.74;100218.03;10178211;29;20040;-68
2021/01/17 04:37:07;;;;;;;21.95;18.42;;;;;;;-2.63;65.47;100217.09;10179102;29;20052;-69
2021/01/17 04:42:10;;;;;;;22.30;19.80;;;;;;;-2.89;66.33;100221.59;10178556;29;20122;-69
2021/01/17 04:47:12;;;;;;;24.85;21.85;;;;;;;-2.80;65.97;100229.56;10177352;29;20076;-69
2021/01/17 04:52:14;;;;;;;21.50;19.35;;;;;;;-2.71;65.59;100230.63;10177098;29;20044;-69
2021/01/17 04:57:26;;;;;;;22.88;20.23;;;;;;;-2.78;66.33;100226.16;10177655;29;20129;-69
2021/01/17 05:02:42;;;;;;;23.27;20.60;;;;;;;-2.83;66.48;100226.91;10176287;29;20044;-70
2021/01/17 05:08:21;;;;;;;23.02;20.70;;;;;;;-2.54;65.40;100232.78;10160126;29;560962;-70
2021/01/17 05:13:24;;;;;;;23.13;20.52;;;;;;;-2.69;66.31;100237.56;10177179;29;20047;-69
2021/01/17 05:18:28;;;;;;;22.55;20.00;;;;;;;-2.42;64.98;100236.47;10179482;29;20095;-69
2021/01/17 05:23:33;;;;;;;25.85;20.55;;;;;;;-2.86;66.47;100231.13;10185859;29;20518;-70
2021/01/17 05:28:34;;;;;;;26.20;21.02;;;;;;;-2.94;67.23;100227.47;10186588;29;20491;-69
2021/01/17 05:33:36;;;;;;;28.10;21.23;;;;;;;-3.03;67.58;100233.25;10184991;29;20048;-71
2021/01/17 05:38:37;;;;;;;25.95;21.35;;;;;;;-3.20;67.63;100231.94;10186583;29;20422;-69
2021/01/17 05:43:46;;;;;;;20.58;18.00;;;;;;;-3.23;67.73;100225.03;10185890;29;20096;-68
2021/01/17 05:48:48;;;;;;;20.02;18.05;;;;;;;-3.17;67.79;100229.44;10185803;29;20047;-70
2021/01/17 05:53:49;;;;;;;17.70;16.00;;;;;;;-2.99;66.97;100226.50;10185238;29;20274;-69
2021/01/17 05:58:51;;;;;;;16.45;14.93;;;;;;;-2.97;66.63;100224.81;10185177;29;20048;-70
2021/01/17 06:03:54;;;;;;;13.07;11.80;;;;;;;-2.89;65.08;100237.03;10184133;29;20072;-69
2021/01/17 06:08:57;;;;;;;13.40;12.07;;;;;;;-2.91;64.89;100236.16;10184300;29;20079;-69
2021/01/17 06:14:02;;;;;;;12.27;11.05;;;;;;;-2.81;64.15;100239.81;10184913;29;20044;-69
2021/01/17 06:19:09;;;;;;;13.18;11.98;;;;;;;-2.89;63.77;100241.31;10184890;29;20052;-69
2021/01/17 06:24:10;;;;;;;12.20;11.10;;;;;;;-3.08;64.56;100235.69;10184258;29;20137;-69
2021/01/17 06:29:12;;;;;;;12.25;11.15;;;;;;;-3.26;65.05;100247.22;10185400;29;20462;-69
2021/01/17 06:34:14;;;;;;;12.93;11.73;;;;;;;-3.44;65.65;100245.00;10181640;29;20043;-70
2021/01/17 06:39:20;;;;;;;13.38;12.07;;;;;;;-3.42;65.69;100243.34;10183820;29;20052;-69
2021/01/17 06:44:30;;;;;;;12.70;11.40;;;;;;;-3.62;66.07;100251.38;10184097;29;20052;-71
2021/01/17 06:49:36;;;;;;;11.60;10.50;;;;;;;-3.47;65.45;100252.63;10185630;29;20054;-69
2021/01/17 06:54:46;;;;;;;12.75;11.45;;;;;;;-3.57;64.91;100247.22;10185037;29;20044;-69
2021/01/17 06:59:51;;;;;;;11.40;10.32;;;;;;;-3.62;64.83;100250.50;10183894;29;20058;-69
2021/01/17 07:04:52;;;;;;;11.80;10.70;;;;;;;-3.71;64.98;100248.53;10183679;29;20060;-69
2021/01/17 07:10:02;;;;;;;14.13;10.95;;;;;;;-3.59;64.43;100248.84;10184067;29;20456;-68
2021/01/17 07:15:06;;;;;;;10.95;10.05;;;;;;;-3.53;64.17;100249.88;10179986;29;20056;-67
2021/01/17 07:20:11;;;;;;;13.25;12.05;;;;;;;-3.63;64.90;100248.72;10181422;29;20056;-68
2021/01/17 07:25:12;;;;;;;12.00;10.93;;;;;;;-3.43;63.54;100246.72;10180794;29;20529;-68
2021/01/17 07:30:20;;;;;;;10.95;9.95;;;;;;;-3.19;62.75;100254.22;10163487;29;20055;-69
2021/01/17 07:35:26;;;;;;;11.15;10.20;;;;;;;-3.24;62.94;100259.25;10180217;29;20075;-69
2021/01/17 07:40:50;;;;;;;11.73;9.85;;;;;;;-3.14;62.63;100270.69;10180889;29;20040;-68
2021/01/17 07:45:53;;;;;;;11.48;10.48;;;;;;;-3.36;64.89;100271.78;10179017;29;20159;-68
2021/01/17 07:50:57;;;;;;;10.75;9.68;;;;;;;-3.41;64.54;100275.91;10179569;29;20459;-69
2021/01/17 07:56:32;;;;;;;10.98;9.98;;;;;;;-3.02;63.76;100286.41;10178080;29;20047;-69
2021/01/17 08:01:34;;;;;;;12.32;11.20;;;;;;;-3.08;64.21;100287.13;10179634;29;20067;-68
2021/01/17 08:06:35;;;;;;;12.07;10.63;;;;;;;-2.48;62.09;100280.06;10179134;29;20123;-67
2021/01/17 08:11:41;;;;;;;11.13;10.13;;;;;;;-2.62;62.96;100288.31;10178647;29;20044;-67
2021/01/17 08:17:12;;;;;;;11.75;10.75;;;;;;;-2.73;62.87;100283.75;10178522;29;20086;-68
2021/01/17 08:22:16;;;;;;;11.98;10.90;;;;;;;-2.29;62.33;100283.16;10178950;29;20063;-68
2021/01/17 08:27:35;;;;;;;10.85;9.93;;;;;;;-2.48;62.52;100285.22;10178687;29;20392;-67
2021/01/17 08:32:45;;;;;;;15.15;13.55;;;;;;;-2.41;62.78;100290.56;10178090;29;20130;-68
2021/01/17 08:37:55;;;;;;;12.45;11.35;;;;;;;-2.10;61.80;100294.75;10177884;29;20044;-71
2021/01/17 08:43:08;;;;;;;11.00;9.93;;;;;;;-1.86;60.25;100296.13;10178882;29;20079;-67
2021/01/17 08:48:15;;;;;;;12.25;11.15;;;;;;;-1.99;61.24;100291.53;10178317;29;20115;-67
2021/01/17 08:53:33;;;;;;;14.45;13.10;;;;;;;-2.34;61.75;100294.19;10177333;29;20044;-68
2021/01/17 08:58:34;;;;;;;15.50;12.90;;;;;;;-2.40;61.52;100287.16;10176261;29;20051;-68
2021/01/17 09:03:57;;;;;;;15.73;14.20;;;;;;;-2.40;62.04;100309.47;10176482;29;20123;-68
2021/01/17 09:09:01;;;;;;;14.70;13.30;;;;;;;-2.24;61.56;100308.13;10176884;29;20044;-66
2021/01/17 09:14:16;;;;;;;14.55;12.43;;;;;;;-1.90;59.80;100313.25;10177403;29;20091;-66
2021/01/17 09:19:19;;;;;;;13.57;12.27;;;;;;;-1.76;59.93;100323.88;10176563;29;20087;-67
2021/01/17 09:24:24;;;;;;;14.18;12.98;;;;;;;-2.04;60.54;100330.97;10175525;29;20048;-65
2021/01/17 09:29:28;;;;;;;14.27;13.07;;;;;;;-1.81;60.41;100334.06;10175859;29;20055;-66
2021/01/17 09:34:41;;;;;;;13.43;12.20;;;;;;;-1.83;59.58;100346.03;10177301;29;20040;-66
2021/01/17 09:39:46;;;;;;;14.57;13.07;;;;;;;-1.53;58.96;100351.00;10177493;29;20048;-67
2021/01/17 09:44:55;;;;;;;14.05;12.65;;;;;;;-1.56;59.42;100355.22;10175386;29;20123;-66
2021/01/17 09:50:09;;;;;;;13.93;12.63;;;;;;;-1.56;58.54;100345.78;10175092;29;20399;-67
2021/01/17 09:55:11;;;;;;;15.98;14.38;;;;;;;-1.21;58.83;100366.31;10176761;29;20050;-65
2021/01/17 10:00:21;;;;;;;16.75;15.07;;;;;;;-1.35;60.04;100360.00;10175807;29;20044;-66
2021/01/17 10:05:26;;;;;;;16.35;14.95;;;;;;;-1.07;59.21;100357.13;10175940;29;20040;-66
2021/01/17 10:10:28;;;;;;;15.52;14.13;;;;;;;-0.91;58.16;100357.47;10181552;29;20052;-66
2021/01/17 10:15:29;;;;;;;16.48;14.77;;;;;;;-0.96;58.66;100354.78;10183829;29;20048;-66
2021/01/17 10:20:39;;;;;;;15.13;13.75;;;;;;;-0.98;58.70;100364.19;10182192;29;20082;-67
2021/01/17 10:25:44;;;;;;;16.88;15.20;;;;;;;-0.66;57.62;100361.38;10183046;29;20123;-66
2021/01/17 10:30:46;;;;;;;16.95;15.45;;;;;;;-0.96;58.41;100369.41;10184330;29;20052;-67
2021/01/17 10:35:49;;;;;;;15.55;14.15;;;;;;;-0.40;56.99;100367.91;10180883;29;20550;-66
2021/01/17 10:40:51;;;;;;;16.70;15.23;;;;;;;-0.73;57.99;100378.47;10182320;29;20463;-67
2021/01/17 10:46:15;;;;;;;16.73;15.27;;;;;;;-0.87;58.53;100372.16;10182201;29;20048;-68
2021/01/17 10:51:21;;;;;;;17.95;16.25;;;;;;;-0.95;59.04;100373.72;10181578;29;20077;-66
2021/01/17 10:56:23;;;;;;;16.88;14.85;;;;;;;-0.77;56.89;100372.34;10181531;29;20040;-65
2021/01/17 11:01:31;;;;;;;14.75;12.88;;;;;;;-0.76;56.97;100371.50;10181853;29;20044;-66
2021/01/17 11:06:32;;;;;;;16.08;14.63;;;;;;;-0.77;56.48;100377.53;10181268;29;20533;-66
2021/01/17 11:11:43;;;;;;;15.75;13.38;;;;;;;-0.63;54.99;100380.38;10181257;29;20044;-66
2021/01/17 11:16:51;;;;;;;15.13;13.60;;;;;;;-0.74;56.50;100387.03;10183518;29;20090;-66
2021/01/17 11:21:53;;;;;;;15.30;13.90;;;;;;;-0.65;55.19;100384.63;10183849;29;20129;-67
2021/01/17 11:27:08;;;;;;;19.25;13.50;;;;;;;-0.46;55.12;100382.41;10182908;29;20048;-66
2021/01/17 11:32:11;;;;;;;15.35;13.85;;;;;;;-0.47;55.62;100385.84;10183415;29;20566;-65
2021/01/17 11:37:13;;;;;;;15.60;14.10;;;;;;;-0.64;56.42;100394.13;10182926;29;20140;-66
2021/01/17 11:42:20;;;;;;;15.65;14.10;;;;;;;-0.84;57.16;100387.69;10183916;29;20050;-65
2021/01/17 11:47:22;;;;;;;14.93;13.57;;;;;;;-0.89;57.03;100397.91;10184016;29;20550;-67
2021/01/17 11:52:24;;;;;;;14.10;12.85;;;;;;;-0.55;54.48;100390.84;10182457;29;20383;-66
2021/01/17 11:57:28;;;;;;;17.52;15.93;;;;;;;-0.64;55.93;100388.97;10182285;29;20062;-65
2021/01/17 12:02:38;;;;;;;18.63;14.38;;;;;;;-1.44;56.87;100399.34;10182433;29;20052;-66
2021/01/17 12:07:56;;;;;;;15.73;14.38;;;;;;;-1.11;56.64;100391.44;10183677;29;20079;-67
2021/01/17 12:12:57;;;;;;;14.85;13.50;;;;;;;-0.82;56.38;100396.34;10182120;29;20064;-66
2021/01/17 12:17:58;;;;;;;14.50;13.02;;;;;;;-0.89;56.26;100402.22;10181720;29;20055;-66
2021/01/17 12:23:00;;;;;;;13.52;12.32;;;;;;;-0.51;55.80;100390.06;10182391;29;20119;-65
2021/01/17 12:28:01;;;;;;;16.00;14.57;;;;;;;-0.60;56.06;100389.88;10179797;29;20064;-66
2021/01/17 12:33:02;;;;;;;14.30;13.10;;;;;;;-0.71;55.47;100394.81;10181046;29;20490;-67
2021/01/17 12:38:04;;;;;;;14.20;12.90;;;;;;;-0.51;54.18;100384.91;10164993;29;20091;-65
2021/01/17 12:43:05;;;;;;;16.27;14.68;;;;;;;-0.31;54.02;100383.56;10179220;29;20073;-64
2021/01/17 12:48:07;;;;;;;14.63;13.25;;;;;;;-0.34;54.81;100385.22;10177923;29;20090;-66
2021/01/17 12:53:08;;;;;;;15.38;12.55;;;;;;;-0.31;54.90;100380.97;10178289;29;20052;-65
2021/01/17 12:58:09;;;;;;;14.18;12.98;;;;;;;-0.59;55.91;100389.03;10177962;29;20055;-64
2021/01/17 13:03:10;;;;;;;13.77;12.48;;;;;;;-0.29;53.96;100388.75;10178556;29;20122;-66
2021/01/17 13:08:12;;;;;;;20.27;18.27;;;;;;;-0.43;54.05;100382.47;10179958;29;20051;-65
2021/01/17 13:13:15;;;;;;;14.00;12.80;;;;;;;-0.43;54.31;100387.63;10179433;29;20067;-65
2021/01/17 13:18:16;;;;;;;14.35;13.05;;;;;;;-0.26;54.09;100381.06;10178052;29;20056;-63
2021/01/17 13:23:18;;;;;;;14.52;13.23;;;;;;;-0.73;55.58;100385.34;10176747;29;20443;-64
2021/01/17 13:28:19;;;;;;;13.25;12.05;;;;;;;-0.49;55.53;100388.38;10176336;29;20132;-64
2021/01/17 13:33:21;;;;;;;13.95;12.75;;;;;;;-0.53;54.63;100387.47;10176211;29;20048;-65
2021/01/17 13:38:24;;;;;;;22.10;12.73;;;;;;;-0.34;53.25;100393.81;10176209;29;20119;-63
2021/01/17 13:43:26;;;;;;;11.88;10.82;;;;;;;-0.50;54.71;100396.97;10181733;29;20131;-64
2021/01/17 13:48:27;;;;;;;11.23;10.23;;;;;;;-0.63;54.73;100400.16;10185693;29;20417;-66
2021/01/17 13:53:29;;;;;;;13.18;11.75;;;;;;;-0.32;54.92;100399.00;10184369;29;20387;-64
2021/01/17 13:58:30;;;;;;;13.68;12.38;;;;;;;-0.54;55.75;100405.50;10183417;29;20047;-64
2021/01/17 14:03:32;;;;;;;12.38;11.38;;;;;;;-0.55;55.57;100411.50;10183546;29;20395;-64
2021/01/17 14:08:33;;;;;;;12.60;11.40;;;;;;;-0.51;55.51;100411.59;10184404;29;20052;-63
2021/01/17 14:13:34;;;;;;;11.23;10.30;;;;;;;-0.53;55.20;100412.41;10184661;29;20044;-65
2021/01/17 14:18:35;;;;;;;12.68;11.48;;;;;;;-0.52;55.11;100416.72;10183969;29;20112;-65
2021/01/17 14:23:37;;;;;;;9.20;8.40;;;;;;;-0.43;53.32;100424.66;10186511;29;20075;-65
2021/01/17 14:28:39;;;;;;;10.27;9.18;;;;;;;-0.88;55.86;100438.41;10185699;29;20144;-64
2021/01/17 14:33:40;;;;;;;8.30;7.57;;;;;;;-0.69;54.46;100429.31;10186046;29;20075;-64
2021/01/17 14:38:43;;;;;;;9.43;8.63;;;;;;;-0.68;55.79;100433.63;10184349;29;20052;-64
2021/01/17 14:43:44;;;;;;;10.93;9.52;;;;;;;-0.80;56.38;100439.44;10166649;29;20048;-65
2021/01/17 14:48:45;;;;;;;10.05;9.15;;;;;;;-1.03;56.99;100441.50;10182766;29;20115;-65
2021/01/17 14:53:48;;;;;;;14.43;13.13;;;;;;;-0.74;56.23;100446.41;10181253;29;20517;-65
2021/01/17 14:58:49;;;;;;;17.75;16.05;;;;;;;-0.96;57.64;100449.41;10182489;29;20578;-66
2021/01/17 15:03:50;;;;;;;16.95;15.35;;;;;;;-1.00;57.69;100445.88;10184163;29;20570;-64
2021/01/17 15:08:51;;;;;;;15.07;13.68;;;;;;;-1.05;57.61;100456.09;10181121;29;20048;-67
2021/01/17 15:13:55;;;;;;;16.52;15.00;;;;;;;-1.19;58.18;100460.09;10181728;29;20435;-66
2021/01/17 15:18:57;;;;;;;16.05;14.43;;;;;;;-1.43;58.85;100468.09;10181837;29;20075;-65
2021/01/17 15:23:58;;;;;;;15.23;13.73;;;;;;;-1.54;59.07;100475.59;10181380;29;20064;-65
2021/01/17 15:29:00;;;;;;;16.85;15.02;;;;;;;-1.76;60.04;100482.78;10182307;29;20052;-66
2021/01/17 15:34:02;;;;;;;17.75;16.02;;;;;;;-1.96;60.33;100485.69;10181512;29;20059;-66
2021/01/17 15:39:09;;;;;;;18.10;16.52;;;;;;;-2.10;61.18;100485.34;10181693;29;20052;-67
2021/01/17 15:44:11;;;;;;;16.92;14.80;;;;;;;-1.95;60.56;100496.88;10182402;29;20055;-65
2021/01/17 15:49:12;;;;;;;17.80;16.20;;;;;;;-1.82;60.48;100483.47;10180249;29;20108;-67
2021/01/17 15:54:13;;;;;;;17.92;16.33;;;;;;;-2.01;60.63;100499.31;10180021;29;20119;-68
2021/01/17 15:59:14;;;;;;;17.65;16.02;;;;;;;-2.34;61.22;100502.72;10181456;29;20111;-67
2021/01/17 16:04:20;;;;;;;19.48;17.58;;;;;;;-2.58;61.78;100511.47;10180212;29;20055;-67
2021/01/17 16:09:21;;;;;;;22.10;17.85;;;;;;;-2.65;61.86;100507.00;10177774;29;20530;-67
2021/01/17 16:14:22;;;;;;;17.30;15.43;;;;;;;-2.50;62.18;100511.72;10180465;29;20495;-67
2021/01/17 16:19:24;;;;;;;19.75;14.85;;;;;;;-2.48;61.44;100522.03;10161903;29;20059;-68
2021/01/17 16:24:25;;;;;;;19.45;16.13;;;;;;;-2.77;62.33;100528.94;10178442;29;20044;-68
2021/01/17 16:29:27;;;;;;;22.27;16.83;;;;;;;-2.73;62.00;100533.34;10178014;29;20131;-67
2021/01/17 16:34:28;;;;;;;25.05;22.23;;;;;;;-2.83;61.11;100545.06;10178497;29;20048;-68
2021/01/17 16:39:31;;;;;;;29.40;22.27;;;;;;;-3.27;62.41;100541.09;10178054;29;20044;-69
2021/01/17 16:44:35;;;;;;;33.63;23.20;;;;;;;-3.09;61.57;100551.97;10178036;29;20052;-68
2021/01/17 16:49:36;;;;;;;29.17;21.45;;;;;;;-3.12;61.66;100555.31;10177280;29;20048;-67
2021/01/17 16:54:38;;;;;;;29.50;20.40;;;;;;;-3.53;61.70;100571.97;10176603;29;20095;-67
2021/01/17 16:59:39;;;;;;;22.98;20.05;;;;;;;-3.79;63.14;100570.22;10177956;29;20424;-68
2021/01/17 17:04:58;;;;;;;22.98;20.27;;;;;;;-4.11;64.20;100575.97;10177508;29;20104;-67
2021/01/17 17:10:00;;;;;;;32.33;22.63;;;;;;;-3.80;62.86;100579.63;10178949;29;20067;-67
2021/01/17 17:15:02;;;;;;;32.88;23.23;;;;;;;-3.94;63.02;100586.84;10178228;29;20119;-68
2021/01/17 17:20:05;;;;;;;32.92;23.55;;;;;;;-3.90;62.45;100595.50;10175870;29;20123;-68
2021/01/17 17:25:07;;;;;;;35.42;22.67;;;;;;;-3.98;62.13;100587.56;10175670;29;20064;-68
2021/01/17 17:30:09;;;;;;;32.13;23.63;;;;;;;-4.12;62.31;100592.19;10177244;29;20092;-68
2021/01/17 17:35:11;;;;;;;33.17;24.13;;;;;;;-4.20;62.99;100597.88;10176337;29;20048;-68
2021/01/17 17:40:12;;;;;;;34.38;23.50;;;;;;;-4.33;62.93;100599.97;10177399;29;20048;-68
2021/01/17 17:45:19;;;;;;;39.63;25.00;;;;;;;-4.53;63.58;100611.19;10178071;29;20048;-69
2021/01/17 17:50:20;;;;;;;45.47;24.77;;;;;;;-4.55;63.56;100612.81;10177804;29;20063;-68
2021/01/17 17:55:22;;;;;;;38.33;23.60;;;;;;;-4.68;63.67;100613.16;10178254;29;20045;-70
2021/01/17 18:00:23;;;;;;;37.90;24.25;;;;;;;-4.93;63.97;100611.31;10178152;29;20048;-69
2021/01/17 18:05:24;;;;;;;47.70;26.13;;;;;;;-4.99;64.45;100622.22;10177746;29;20048;-68
2021/01/17 18:10:26;;;;;;;41.58;26.88;;;;;;;-5.03;64.38;100625.47;10178709;29;20120;-68
2021/01/17 18:15:27;;;;;;;45.70;26.52;;;;;;;-5.03;64.36;100627.16;10179130;29;20048;-68
2021/01/17 18:20:29;;;;;;;49.95;26.58;;;;;;;-5.13;64.53;100629.34;10179600;29;20495;-69
2021/01/17 18:25:32;;;;;;;38.35;25.40;;;;;;;-5.30;65.00;100627.78;10180447;29;20056;-69
2021/01/17 18:30:33;;;;;;;39.78;25.00;;;;;;;-5.25;65.06;100635.66;10185091;29;20388;-69
2021/01/17 18:35:35;;;;;;;31.13;23.67;;;;;;;-5.21;64.91;100643.53;10183732;29;20048;-70
2021/01/17 18:40:36;;;;;;;45.60;25.23;;;;;;;-5.24;64.75;100645.97;10185376;29;20509;-70
2021/01/17 18:45:37;;;;;;;29.88;23.08;;;;;;;-5.36;65.38;100645.44;10186562;29;20451;-69
2021/01/17 18:50:39;;;;;;;35.35;21.85;;;;;;;-5.32;64.69;100644.78;10187636;29;20059;-69
2021/01/17 18:55:41;;;;;;;27.75;20.45;;;;;;;-5.38;64.89;100647.97;10185749;29;20064;-69
2021/01/17 19:00:43;;;;;;;29.85;19.98;;;;;;;-5.37;64.68;100654.84;10182967;29;20067;-68
2021/01/17 19:05:44;;;;;;;74.65;34.88;;;;;;;-5.37;64.94;100641.16;10183760;29;20123;-70
2021/01/17 19:10:46;;;;;;;62.47;29.52;;;;;;;-5.45;64.67;100643.38;10182543;29;20036;-69
2021/01/17 19:15:47;;;;;;;56.92;27.83;;;;;;;-5.60;65.03;100653.88;10182492;29;20040;-69
2021/01/17 19:20:49;;;;;;;40.70;25.50;;;;;;;-5.73;65.04;100653.28;10183195;29;20044;-68
2021/01/17 19:25:50;;;;;;;38.45;24.65;;;;;;;-5.49;64.13;100658.56;10183663;29;20063;-69
2021/01/17 19:30:52;;;;;;;22.40;18.60;;;;;;;-5.60;64.27;100655.56;10183930;29;20051;-70
2021/01/17 19:35:53;;;;;;;20.45;16.83;;;;;;;-5.65;64.27;100651.94;10182671;29;20222;-69
2021/01/17 19:40:54;;;;;;;19.15;17.13;;;;;;;-5.54;64.17;100653.25;10181555;29;20048;-69
2021/01/17 19:45:56;;;;;;;18.08;16.38;;;;;;;-5.55;63.72;100653.19;10181775;29;20491;-68
2021/01/17 19:50:58;;;;;;;18.35;16.02;;;;;;;-5.73;64.21;100654.16;10181181;29;20107;-70
2021/01/17 19:56:00;;;;;;;17.10;15.18;;;;;;;-5.67;64.20;100653.53;10181192;29;20058;-70
2021/01/17 20:01:01;;;;;;;17.17;15.48;;;;;;;-5.84;64.70;100650.25;10181462;29;20056;-70
2021/01/17 20:06:03;;;;;;;16.00;14.32;;;;;;;-5.74;64.42;100652.41;10180462;29;20096;-70
2021/01/17 20:11:04;;;;;;;15.00;13.57;;;;;;;-5.76;64.12;100653.13;10181487;29;20047;-70
2021/01/17 20:16:05;;;;;;;17.23;15.52;;;;;;;-6.11;64.89;100655.94;10181904;29;20082;-69
2021/01/17 20:21:17;;;;;;;16.23;14.50;;;;;;;-6.19;65.54;100649.59;10180050;29;20048;-70
2021/01/17 20:26:23;;;;;;;20.30;15.63;;;;;;;-6.25;65.92;100648.44;10180170;29;20040;-69
2021/01/17 20:31:26;;;;;;;18.33;16.13;;;;;;;-6.18;65.65;100641.09;10179299;29;20436;-69
2021/01/17 20:36:33;;;;;;;18.17;16.30;;;;;;;-6.25;65.58;100641.63;10179693;29;20036;-69
2021/01/17 20:41:36;;;;;;;17.60;14.93;;;;;;;-6.39;66.01;100641.00;10179877;29;20439;-69
2021/01/17 20:47:01;;;;;;;21.63;17.23;;;;;;;-6.31;65.96;100645.59;10179177;29;20044;-69
2021/01/17 20:52:03;;;;;;;18.00;16.02;;;;;;;-6.26;65.71;100633.88;10179130;29;20072;-69
2021/01/17 20:57:06;;;;;;;20.52;17.08;;;;;;;-6.29;66.18;100638.84;10178215;29;20079;-68
2021/01/17 21:02:07;;;;;;;22.50;18.67;;;;;;;-6.16;65.45;100642.03;10176934;29;20115;-70
2021/01/17 21:07:10;;;;;;;33.67;19.98;;;;;;;-6.18;64.48;100627.44;10177834;29;20131;-69
2021/01/17 21:12:11;;;;;;;34.40;22.73;;;;;;;-6.64;66.39;100631.34;10178758;29;20059;-70
2021/01/17 21:17:12;;;;;;;30.33;21.77;;;;;;;-6.50;66.18;100631.97;10179382;29;20048;-70
2021/01/17 21:22:14;;;;;;;25.20;19.88;;;;;;;-6.56;66.02;100635.91;10177617;29;20387;-70
2021/01/17 21:27:15;;;;;;;23.65;18.08;;;;;;;-6.44;65.75;100639.91;10179102;29;20048;-70
2021/01/17 21:32:17;;;;;;;23.55;19.50;;;;;;;-6.67;66.17;100638.00;10177703;29;20051;-70
2021/01/17 21:37:18;;;;;;;18.92;15.70;;;;;;;-6.62;65.91;100646.75;10177723;29;20517;-69
2021/01/17 21:42:20;;;;;;;19.95;17.80;;;;;;;-6.90;66.27;100648.00;10177977;29;20099;-70
2021/01/17 21:47:21;;;;;;;28.77;19.35;;;;;;;-6.76;65.91;100635.00;10177383;29;20447;-70
2021/01/17 21:52:23;;;;;;;25.15;19.25;;;;;;;-6.85;65.98;100643.09;10177623;29;20078;-69
2021/01/17 21:57:24;;;;;;;21.95;19.63;;;;;;;-6.56;65.42;100641.03;10177268;29;20161;-70
2021/01/17 22:02:26;;;;;;;25.60;20.63;;;;;;;-6.46;64.89;100640.63;10179760;29;20127;-68
2021/01/17 22:07:33;;;;;;;23.67;19.48;;;;;;;-6.64;65.48;100638.09;10184815;29;20044;-70
2021/01/17 22:12:36;;;;;;;23.37;15.23;;;;;;;-6.77;66.04;100636.69;10184788;29;20462;-70
2021/01/17 22:17:38;;;;;;;30.77;19.88;;;;;;;-6.54;65.53;100642.88;10185259;29;20502;-69
2021/01/17 22:22:44;;;;;;;26.50;18.52;;;;;;;-6.76;65.89;100637.56;10185211;29;20454;-70
2021/01/17 22:27:46;;;;;;;26.65;19.65;;;;;;;-6.77;65.79;100639.25;10183926;29;20099;-70
2021/01/17 22:32:48;;;;;;;31.38;21.20;;;;;;;-6.78;65.79;100637.47;10184113;29;20407;-70
2021/01/17 22:37:51;;;;;;;28.20;19.23;;;;;;;-7.00;66.55;100638.13;10185227;29;20047;-70
2021/01/17 22:42:52;;;;;;;33.60;20.63;;;;;;;-7.11;66.73;100645.28;10184220;29;20048;-70
2021/01/17 22:47:56;;;;;;;34.25;20.90;;;;;;;-6.92;66.58;100644.47;10183167;29;20052;-69